Time;durP1;ratioP1;P1;durP2;ratioP2;P2;SDS_P1;SDS_P2;PMS_P1;PMS_P2;Temp;Humidity;BMP_temperature;BMP_pressure;BME280_temperature;BME280_humidity;BME280_pressure;Samples;Min_cycle;Max_cycle;Signal;HPM_P1;HPM_P2
2020/12/23 00:01:21;;;;;;;21.43;15.23;;;11.30;99.90;;;;;;4939680;28;20198;-75
2020/12/23 00:03:47;;;;;;;28.43;16.03;;;11.20;99.90;;;;;;4946773;28;20316;-75
2020/12/23 00:06:13;;;;;;;21.90;14.10;;;11.20;99.90;;;;;;4944912;28;20938;-75
2020/12/23 00:08:39;;;;;;;23.37;15.37;;;11.20;99.90;;;;;;4942083;28;20474;-75
2020/12/23 00:11:04;;;;;;;22.03;14.43;;;11.00;99.90;;;;;;4935872;28;20202;-75
2020/12/23 00:13:30;;;;;;;22.77;15.33;;;10.90;99.90;;;;;;4935320;28;20465;-75
2020/12/23 00:15:56;;;;;;;21.73;14.90;;;10.90;99.90;;;;;;4936405;28;20284;-75
2020/12/23 00:18:22;;;;;;;22.70;14.50;;;10.90;99.90;;;;;;4935508;28;20269;-75
2020/12/23 00:20:47;;;;;;;22.10;15.30;;;10.90;99.90;;;;;;4934865;28;20209;-75
2020/12/23 00:23:13;;;;;;;20.80;13.70;;;10.90;99.90;;;;;;4932613;28;20182;-75
2020/12/23 00:25:39;;;;;;;21.87;13.50;;;11.00;99.90;;;;;;4940227;28;20189;-75
2020/12/23 00:28:04;;;;;;;26.07;14.87;;;10.90;99.90;;;;;;4940392;28;20650;-75
2020/12/23 00:30:30;;;;;;;25.20;16.70;;;10.90;99.90;;;;;;4937445;28;20205;-74
2020/12/23 00:32:56;;;;;;;22.93;15.83;;;11.00;99.90;;;;;;4938239;28;20238;-75
2020/12/23 00:35:21;;;;;;;26.03;16.83;;;11.00;99.90;;;;;;4940916;28;20825;-75
2020/12/23 00:37:47;;;;;;;25.57;16.33;;;11.00;99.90;;;;;;4944336;28;20725;-75
2020/12/23 00:40:13;;;;;;;27.73;16.70;;;11.00;99.90;;;;;;4944188;28;21445;-75
2020/12/23 00:42:39;;;;;;;25.83;16.60;;;11.10;99.90;;;;;;4950992;28;20199;-74
2020/12/23 00:45:05;;;;;;;26.73;16.97;;;11.10;99.90;;;;;;4945244;28;20836;-77
2020/12/23 00:47:31;;;;;;;23.50;16.03;;;11.10;99.90;;;;;;4945997;28;20940;-77
2020/12/23 00:49:56;;;;;;;22.77;16.50;;;11.10;99.90;;;;;;4937183;28;21842;-75
2020/12/23 00:52:22;;;;;;;24.67;16.77;;;11.00;99.90;;;;;;4939956;28;20621;-78
2020/12/23 00:54:48;;;;;;;26.87;17.43;;;11.10;99.90;;;;;;4943186;28;20570;-76
2020/12/23 00:57:21;;;;;;;32.07;16.50;;;11.10;99.90;;;;;;4942104;28;20212;-75
2020/12/23 00:59:47;;;;;;;25.53;17.20;;;11.10;99.90;;;;;;4953191;28;21043;-76
2020/12/23 01:02:13;;;;;;;27.07;15.80;;;11.10;99.90;;;;;;4938542;28;21416;-75
2020/12/23 01:04:38;;;;;;;23.33;15.70;;;11.10;99.90;;;;;;4943468;28;20182;-76
2020/12/23 01:07:04;;;;;;;27.07;16.70;;;11.10;99.90;;;;;;4950888;28;20219;-75
2020/12/23 01:09:30;;;;;;;27.40;16.30;;;11.10;99.90;;;;;;4942102;28;20711;-75
2020/12/23 01:11:55;;;;;;;26.07;16.27;;;11.10;99.90;;;;;;4947416;28;20956;-76
2020/12/23 01:14:21;;;;;;;24.60;16.20;;;11.10;99.90;;;;;;4949951;28;20186;-77
2020/12/23 01:16:47;;;;;;;26.07;16.27;;;11.10;99.90;;;;;;4947788;28;20272;-76
2020/12/23 01:19:13;;;;;;;25.37;15.80;;;11.10;99.90;;;;;;4953592;28;20308;-75
2020/12/23 01:21:38;;;;;;;22.90;13.87;;;11.10;99.90;;;;;;4939857;28;20217;-76
2020/12/23 01:24:04;;;;;;;19.63;12.93;;;11.10;99.90;;;;;;4940969;28;20461;-75
2020/12/23 01:26:30;;;;;;;24.03;15.07;;;11.10;99.90;;;;;;4945083;28;20196;-76
2020/12/23 01:28:55;;;;;;;23.63;14.70;;;11.10;99.90;;;;;;4946332;28;20224;-76
2020/12/23 01:31:21;;;;;;;23.83;15.30;;;11.10;99.90;;;;;;4949193;28;20194;-75
2020/12/23 01:33:47;;;;;;;29.57;17.13;;;11.10;99.90;;;;;;4946344;28;20216;-76
2020/12/23 01:36:13;;;;;;;24.30;16.33;;;11.10;99.90;;;;;;4954610;28;20674;-75
2020/12/23 01:38:38;;;;;;;23.60;15.70;;;11.10;99.90;;;;;;4937431;28;20620;-76
2020/12/23 01:41:05;;;;;;;21.17;13.30;;;11.10;99.90;;;;;;4951689;28;20189;-75
2020/12/23 01:43:32;;;;;;;20.53;13.63;;;11.10;99.90;;;;;;4935577;28;20703;-75
2020/12/23 01:45:57;;;;;;;23.60;13.67;;;11.10;99.90;;;;;;4945587;28;20462;-75
2020/12/23 01:48:28;;;;;;;20.17;12.90;;;11.00;99.90;;;;;;4941122;28;20507;-76
2020/12/23 01:50:57;;;;;;;20.97;13.93;;;11.00;99.90;;;;;;4945862;28;20459;-77
2020/12/23 01:53:24;;;;;;;20.57;13.80;;;11.00;99.90;;;;;;4947036;28;20508;-76
2020/12/23 01:55:50;;;;;;;26.00;14.30;;;11.00;99.90;;;;;;4943552;28;20880;-76
2020/12/23 01:58:16;;;;;;;27.25;14.10;;;11.00;99.90;;;;;;4943566;28;20194;-76
2020/12/23 02:00:42;;;;;;;26.13;12.60;;;11.00;99.90;;;;;;4940306;28;20709;-76
2020/12/23 02:03:12;;;;;;;20.97;13.27;;;11.00;99.90;;;;;;4945042;28;20681;-76
2020/12/23 02:05:41;;;;;;;21.23;14.07;;;11.00;99.90;;;;;;4953131;28;20500;-75
2020/12/23 02:08:09;;;;;;;22.50;13.10;;;11.00;99.90;;;;;;4955648;28;20458;-76
2020/12/23 02:10:35;;;;;;;19.90;12.40;;;11.10;99.90;;;;;;4949201;28;21103;-77
2020/12/23 02:13:00;;;;;;;17.63;11.80;;;11.00;99.90;;;;;;4945364;28;20383;-76
2020/12/23 02:15:26;;;;;;;17.77;11.43;;;11.10;99.90;;;;;;4937569;28;20969;-76
2020/12/23 02:17:52;;;;;;;16.83;12.30;;;11.10;99.90;;;;;;4937867;28;20190;-76
2020/12/23 02:20:18;;;;;;;21.10;13.70;;;11.10;99.90;;;;;;4946465;28;20813;-76
2020/12/23 02:22:46;;;;;;;20.77;11.98;;;11.10;99.90;;;;;;4937932;28;20447;-75
2020/12/23 02:25:13;;;;;;;21.97;12.50;;;11.10;99.90;;;;;;4943228;28;20196;-77
2020/12/23 02:27:40;;;;;;;17.60;10.90;;;11.10;99.90;;;;;;4948159;28;20507;-76
2020/12/23 02:30:08;;;;;;;17.17;11.77;;;11.10;99.90;;;;;;4940763;28;20450;-76
2020/12/23 02:32:34;;;;;;;17.97;10.80;;;11.10;99.90;;;;;;4940113;28;20918;-77
2020/12/23 02:35:00;;;;;;;14.43;10.40;;;11.00;99.90;;;;;;4946112;28;20842;-76
2020/12/23 02:37:25;;;;;;;16.03;10.57;;;11.10;99.90;;;;;;4938181;28;20484;-76
2020/12/23 02:40:29;;;;;;;19.57;9.57;;;11.10;99.90;;;;;;4942527;28;20279;-76
2020/12/23 02:42:55;;;;;;;21.23;10.73;;;11.10;99.90;;;;;;4949493;28;20320;-77
2020/12/23 02:45:21;;;;;;;12.73;9.50;;;11.00;99.90;;;;;;4956166;28;20733;-76
2020/12/23 02:47:47;;;;;;;17.38;11.00;;;11.00;99.90;;;;;;4947368;28;20326;-77
2020/12/23 02:50:12;;;;;;;23.20;13.87;;;11.10;99.90;;;;;;4940742;28;20200;-77
2020/12/23 02:52:38;;;;;;;19.60;11.40;;;11.00;99.90;;;;;;4941542;28;20194;-77
2020/12/23 02:55:04;;;;;;;23.20;12.40;;;11.00;99.90;;;;;;4947330;28;20773;-77
2020/12/23 02:57:29;;;;;;;17.87;13.23;;;11.10;99.90;;;;;;4950584;28;20673;-75
2020/12/23 02:59:55;;;;;;;19.40;12.73;;;11.10;99.90;;;;;;4936678;28;20450;-75
2020/12/23 03:02:21;;;;;;;26.63;12.70;;;11.10;99.90;;;;;;4943424;28;20852;-75
2020/12/23 03:04:46;;;;;;;20.83;12.57;;;11.10;99.90;;;;;;4945768;28;20346;-75
2020/12/23 03:07:12;;;;;;;21.97;14.63;;;11.10;99.90;;;;;;4946500;28;20263;-75
2020/12/23 03:09:37;;;;;;;24.17;14.40;;;11.10;99.90;;;;;;4941586;28;20903;-75
2020/12/23 03:12:03;;;;;;;28.50;15.77;;;11.10;99.90;;;;;;4937327;28;21052;-75
2020/12/23 03:14:47;;;;;;;25.50;16.20;;;11.10;99.90;;;;;;4943809;28;20193;-78
2020/12/23 03:17:13;;;;;;;25.53;14.37;;;11.10;99.90;;;;;;4945435;28;20642;-75
2020/12/23 03:19:41;;;;;;;26.03;15.50;;;11.10;99.90;;;;;;4954524;28;20467;-77
2020/12/23 03:22:16;;;;;;;23.67;15.00;;;11.10;99.90;;;;;;4967699;28;22068;-77
2020/12/23 03:24:42;;;;;;;23.50;15.03;;;11.10;99.90;;;;;;4955906;28;20666;-75
2020/12/23 03:27:08;;;;;;;24.70;15.93;;;11.10;99.90;;;;;;4939138;28;20449;-78
2020/12/23 03:29:33;;;;;;;28.30;16.80;;;11.10;99.90;;;;;;4947547;28;20230;-77
2020/12/23 03:31:59;;;;;;;24.47;16.90;;;11.10;99.90;;;;;;4949170;28;20199;-77
2020/12/23 03:34:25;;;;;;;32.10;18.07;;;11.10;99.90;;;;;;4943488;28;20733;-77
2020/12/23 03:36:51;;;;;;;25.13;15.70;;;11.10;99.90;;;;;;4943821;28;20284;-76
2020/12/23 03:39:16;;;;;;;27.20;19.23;;;11.10;99.90;;;;;;4939931;28;20816;-76
2020/12/23 03:41:42;;;;;;;22.50;17.53;;;11.10;99.90;;;;;;4938314;28;20741;-77
2020/12/23 03:44:07;;;;;;;25.33;18.03;;;11.10;99.90;;;;;;4945292;28;20188;-76
2020/12/23 03:46:33;;;;;;;30.13;17.00;;;11.10;99.90;;;;;;4951604;28;20280;-77
2020/12/23 03:48:59;;;;;;;24.60;17.80;;;11.10;99.90;;;;;;4949159;28;20543;-77
2020/12/23 03:51:24;;;;;;;26.50;17.90;;;11.10;99.90;;;;;;4943132;28;21000;-77
2020/12/23 03:53:50;;;;;;;26.97;17.50;;;11.10;99.90;;;;;;4933542;28;20192;-77
2020/12/23 03:56:16;;;;;;;27.03;17.93;;;11.10;99.90;;;;;;4940057;28;20497;-77
2020/12/23 03:58:41;;;;;;;26.63;18.50;;;11.10;99.90;;;;;;4939532;28;20185;-77
2020/12/23 04:01:07;;;;;;;28.07;18.63;;;11.10;99.90;;;;;;4935979;28;20819;-77
2020/12/23 04:03:32;;;;;;;26.93;18.87;;;11.20;99.90;;;;;;4937031;28;20182;-78
2020/12/23 04:05:58;;;;;;;27.00;17.40;;;11.20;99.90;;;;;;4939290;28;20315;-77
2020/12/23 04:08:24;;;;;;;29.73;18.60;;;11.20;99.90;;;;;;4945100;28;20185;-77
2020/12/23 04:10:49;;;;;;;25.57;17.87;;;11.20;99.90;;;;;;4936113;28;20308;-77
2020/12/23 04:13:15;;;;;;;26.63;17.50;;;11.20;99.90;;;;;;4941804;28;20191;-77
2020/12/23 04:15:40;;;;;;;23.17;16.80;;;11.20;99.90;;;;;;4958174;28;20235;-76
2020/12/23 04:18:06;;;;;;;26.33;16.23;;;11.20;99.90;;;;;;4947422;28;20275;-76
2020/12/23 04:20:32;;;;;;;23.20;16.53;;;11.20;99.90;;;;;;4936444;28;21029;-76
2020/12/23 04:22:58;;;;;;;23.53;16.00;;;11.20;99.90;;;;;;4938958;28;20540;-76
2020/12/23 04:25:23;;;;;;;19.83;14.50;;;11.10;99.90;;;;;;4943540;28;20465;-76
2020/12/23 04:27:49;;;;;;;20.40;15.23;;;11.10;99.90;;;;;;4943041;28;20193;-76
2020/12/23 04:30:14;;;;;;;20.60;14.23;;;11.20;99.90;;;;;;4952285;28;20193;-76
2020/12/23 04:32:40;;;;;;;19.13;14.17;;;11.20;99.90;;;;;;4934399;28;20510;-76
2020/12/23 04:35:06;;;;;;;22.60;15.20;;;11.10;99.90;;;;;;4937631;28;20304;-76
2020/12/23 04:37:33;;;;;;;16.57;13.40;;;11.10;99.90;;;;;;4937564;28;20217;-75
2020/12/23 04:40:01;;;;;;;16.73;12.73;;;11.10;99.90;;;;;;4947446;28;20264;-76
2020/12/23 04:42:27;;;;;;;20.02;12.52;;;11.20;99.90;;;;;;4945502;28;20541;-77
2020/12/23 04:44:54;;;;;;;15.80;11.90;;;11.10;99.90;;;;;;4946835;28;20284;-76
2020/12/23 04:47:24;;;;;;;20.80;12.60;;;11.10;99.90;;;;;;4934953;28;20544;-76
2020/12/23 04:49:54;;;;;;;16.07;11.67;;;11.10;99.90;;;;;;4937654;28;20821;-76
2020/12/23 04:52:32;;;;;;;14.90;11.87;;;11.10;99.90;;;;;;4938172;28;20942;-76
2020/12/23 04:55:00;;;;;;;15.30;11.20;;;11.10;99.90;;;;;;4944303;28;20803;-76
2020/12/23 04:57:30;;;;;;;19.30;13.00;;;11.10;99.90;;;;;;4936521;28;20574;-76
2020/12/23 04:59:55;;;;;;;17.93;11.40;;;11.10;99.90;;;;;;4943252;28;20469;-75
2020/12/23 05:02:21;;;;;;;21.17;12.90;;;11.10;99.90;;;;;;4942701;28;20457;-76
2020/12/23 05:04:47;;;;;;;16.73;12.13;;;11.10;99.90;;;;;;4944090;28;20246;-76
2020/12/23 05:07:17;;;;;;;19.60;12.80;;;11.10;99.90;;;;;;4945042;28;21806;-76
2020/12/23 05:09:46;;;;;;;17.33;12.23;;;11.10;99.90;;;;;;4940281;28;21095;-76
2020/12/23 05:12:12;;;;;;;16.13;11.02;;;11.10;99.90;;;;;;4944993;28;20210;-76
2020/12/23 05:14:38;;;;;;;14.93;11.23;;;11.10;99.90;;;;;;4943987;28;20231;-77
2020/12/23 05:17:04;;;;;;;13.97;10.87;;;11.10;99.90;;;;;;4941680;28;20229;-76
2020/12/23 05:19:30;;;;;;;17.37;12.27;;;11.10;99.90;;;;;;4942107;28;20855;-77
2020/12/23 05:21:57;;;;;;;19.10;11.40;;;11.10;99.90;;;;;;4941215;28;20246;-76
2020/12/23 05:24:25;;;;;;;16.07;12.20;;;11.10;99.90;;;;;;4948120;28;20827;-76
2020/12/23 05:26:56;;;;;;;15.87;11.20;;;11.10;99.90;;;;;;4946328;28;20539;-75
2020/12/23 05:29:23;;;;;;;16.70;10.10;;;11.10;99.90;;;;;;4945573;28;20527;-75
2020/12/23 05:31:49;;;;;;;13.50;9.43;;;11.10;99.90;;;;;;4948465;28;20453;-75
2020/12/23 05:34:15;;;;;;;17.53;9.93;;;11.10;99.90;;;;;;4946951;28;20455;-75
2020/12/23 05:36:41;;;;;;;12.47;8.40;;;11.10;99.90;;;;;;4944929;28;20506;-76
2020/12/23 05:39:08;;;;;;;11.73;9.30;;;11.10;99.90;;;;;;4941007;28;21016;-76
2020/12/23 05:41:35;;;;;;;11.50;8.25;;;11.10;99.90;;;;;;4944815;28;20447;-76
2020/12/23 05:44:02;;;;;;;11.17;8.50;;;11.20;99.90;;;;;;4949853;28;20276;-76
2020/12/23 05:46:27;;;;;;;11.67;8.43;;;11.20;99.90;;;;;;4949782;28;20462;-75
2020/12/23 05:48:53;;;;;;;9.27;8.00;;;11.10;99.90;;;;;;4949870;28;21332;-76
2020/12/23 05:51:19;;;;;;;13.07;8.43;;;11.10;99.90;;;;;;4947747;28;20209;-75
2020/12/23 05:53:45;;;;;;;12.13;8.50;;;11.10;99.90;;;;;;4939806;28;21420;-76
2020/12/23 05:56:11;;;;;;;8.07;6.40;;;11.10;99.90;;;;;;4951293;28;20272;-76
2020/12/23 05:58:39;;;;;;;10.63;7.03;;;11.10;99.90;;;;;;4941041;28;21165;-75
2020/12/23 06:01:07;;;;;;;8.50;7.10;;;11.10;99.90;;;;;;4940024;28;20240;-75
2020/12/23 06:03:46;;;;;;;8.83;7.10;;;11.10;99.90;;;;;;4938905;28;20464;-75
2020/12/23 06:06:12;;;;;;;7.47;5.80;;;11.10;99.90;;;;;;4932220;28;20487;-75
2020/12/23 06:08:39;;;;;;;5.90;5.30;;;11.10;99.90;;;;;;4930043;28;20457;-76
2020/12/23 06:11:31;;;;;;;6.77;5.03;;;11.10;99.90;;;;;;4936448;28;20899;-76
2020/12/23 06:14:06;;;;;;;7.00;5.07;;;11.10;99.90;;;;;;4941052;28;20455;-76
2020/12/23 06:16:33;;;;;;;7.80;5.10;;;11.10;99.90;;;;;;4946311;28;21028;-75
2020/12/23 06:19:05;;;;;;;5.50;3.90;;;11.10;99.90;;;;;;4947462;28;20992;-75
2020/12/23 06:21:30;;;;;;;4.53;3.90;;;11.10;99.90;;;;;;4946706;28;20500;-76
2020/12/23 06:24:16;;;;;;;5.93;3.57;;;11.10;99.90;;;;;;4948560;28;20538;-76
2020/12/23 06:26:50;;;;;;;4.95;2.85;;;11.10;99.90;;;;;;4946048;28;20624;-75
2020/12/23 06:29:18;;;;;;;5.30;3.73;;;11.00;99.90;;;;;;4940290;28;20194;-75
2020/12/23 06:32:02;;;;;;;4.37;3.30;;;11.10;99.90;;;;;;4937109;28;20465;-76
2020/12/23 06:34:38;;;;;;;4.07;3.63;;;11.00;99.90;;;;;;4958642;28;20460;-76
2020/12/23 06:37:31;;;;;;;5.20;4.67;;;11.00;99.90;;;;;;4960202;28;20894;-75
2020/12/23 06:39:57;;;;;;;4.20;3.80;;;11.00;99.90;;;;;;4949603;28;20455;-75
2020/12/23 06:42:28;;;;;;;5.27;4.77;;;11.10;99.90;;;;;;4961642;28;20608;-75
2020/12/23 06:44:58;;;;;;;6.33;5.70;;;11.10;99.90;;;;;;4949375;28;20480;-76
2020/12/23 06:47:26;;;;;;;5.70;5.10;;;11.10;99.90;;;;;;4944754;28;20975;-76
2020/12/23 06:49:55;;;;;;;10.03;5.73;;;11.10;99.90;;;;;;4940202;28;20816;-75
2020/12/23 06:52:34;;;;;;;6.97;6.13;;;11.10;99.90;;;;;;4943109;28;21396;-74
2020/12/23 06:55:08;;;;;;;9.50;5.93;;;11.10;99.90;;;;;;4955717;28;20529;-75
2020/12/23 06:57:40;;;;;;;8.57;5.67;;;11.10;99.90;;;;;;4950229;28;20855;-76
2020/12/23 07:00:20;;;;;;;7.17;5.30;;;11.10;99.90;;;;;;4956541;28;25356;-76
2020/12/23 07:02:51;;;;;;;6.00;5.40;;;11.10;99.90;;;;;;4936818;28;20507;-75
2020/12/23 07:05:28;;;;;;;6.23;5.57;;;11.10;99.90;;;;;;4941561;28;20453;-75
2020/12/23 07:07:55;;;;;;;4.80;4.30;;;11.20;99.90;;;;;;4932801;28;20841;-76
2020/12/23 07:10:22;;;;;;;5.13;4.60;;;11.20;99.90;;;;;;4938298;28;20460;-75
2020/12/23 07:12:50;;;;;;;6.70;5.63;;;11.20;99.90;;;;;;4940458;28;20911;-75
2020/12/23 07:15:20;;;;;;;7.30;5.63;;;11.20;99.90;;;;;;4940719;28;21310;-75
2020/12/23 07:17:46;;;;;;;7.10;5.23;;;11.20;99.90;;;;;;4947586;28;21138;-75
2020/12/23 07:20:13;;;;;;;11.20;4.50;;;11.20;99.90;;;;;;4934364;28;20452;-75
2020/12/23 07:22:46;;;;;;;6.70;5.33;;;11.20;99.90;;;;;;4928662;28;21859;-75
2020/12/23 07:25:26;;;;;;;7.43;5.25;;;11.20;99.90;;;;;;4932830;28;20464;-75
2020/12/23 07:27:55;;;;;;;7.73;5.50;;;11.20;99.90;;;;;;4933306;28;22040;-75
2020/12/23 07:30:22;;;;;;;7.97;5.77;;;11.20;99.90;;;;;;4939780;28;20821;-74
2020/12/23 07:33:02;;;;;;;9.77;5.80;;;11.20;99.90;;;;;;4940434;28;20447;-75
2020/12/23 07:35:28;;;;;;;7.87;5.17;;;11.20;99.90;;;;;;4935694;28;20633;-75
2020/12/23 07:37:58;;;;;;;6.03;4.97;;;11.20;99.90;;;;;;4925781;28;20496;-75
2020/12/23 07:40:24;;;;;;;7.00;4.97;;;11.20;99.90;;;;;;4935189;28;20443;-75
2020/12/23 07:42:50;;;;;;;6.40;4.43;;;11.20;99.90;;;;;;4956292;28;20570;-75
2020/12/23 07:45:17;;;;;;;8.67;5.70;;;11.20;99.90;;;;;;4946089;28;20453;-76
2020/12/23 07:47:59;;;;;;;8.70;5.38;;;11.20;99.90;;;;;;4937272;28;20450;-76
2020/12/23 07:50:28;;;;;;;6.00;4.70;;;11.20;99.90;;;;;;4933356;28;20664;-76
2020/12/23 07:52:54;;;;;;;7.67;4.93;;;11.20;99.90;;;;;;4930005;28;20483;-76
2020/12/23 07:55:22;;;;;;;6.80;5.33;;;11.20;99.90;;;;;;4936347;28;20501;-76
2020/12/23 07:57:49;;;;;;;5.90;4.10;;;11.20;99.90;;;;;;4938144;28;20562;-76
2020/12/23 08:00:16;;;;;;;3.80;3.00;;;11.30;99.90;;;;;;4937255;28;20956;-76
2020/12/23 08:02:42;;;;;;;6.47;3.20;;;11.30;99.90;;;;;;4937625;28;21441;-76
2020/12/23 08:05:10;;;;;;;4.90;3.13;;;11.30;99.90;;;;;;4934873;28;20222;-76
2020/12/23 08:07:43;;;;;;;4.70;3.37;;;11.30;99.90;;;;;;4938403;28;20473;-75
2020/12/23 08:10:10;;;;;;;5.47;3.57;;;11.30;99.90;;;;;;4926833;28;21080;-75
2020/12/23 08:12:36;;;;;;;6.93;3.80;;;11.20;99.90;;;;;;4925374;28;20445;-75
2020/12/23 08:15:12;;;;;;;5.40;3.70;;;11.30;99.90;;;;;;4930364;28;20463;-76
2020/12/23 08:17:38;;;;;;;6.90;3.17;;;11.30;99.90;;;;;;4934368;28;20291;-76
2020/12/23 08:20:12;;;;;;;6.43;3.00;;;11.30;99.90;;;;;;4937201;28;20457;-76
2020/12/23 08:22:44;;;;;;;6.60;3.60;;;11.30;99.90;;;;;;4934612;28;20487;-75
2020/12/23 08:25:15;;;;;;;3.93;2.60;;;11.20;99.90;;;;;;4948857;28;20463;-76
2020/12/23 08:27:44;;;;;;;6.63;2.30;;;11.20;99.90;;;;;;4931832;28;20449;-75
2020/12/23 08:30:16;;;;;;;3.40;2.70;;;11.30;99.90;;;;;;4935346;28;20492;-76
2020/12/23 08:32:59;;;;;;;2.55;2.20;;;11.20;99.90;;;;;;4933735;28;20445;-76
2020/12/23 08:35:28;;;;;;;3.30;2.10;;;11.20;99.90;;;;;;4930841;28;20308;-76
2020/12/23 08:37:54;;;;;;;2.57;2.03;;;11.20;99.90;;;;;;4931005;28;20481;-76
2020/12/23 08:40:19;;;;;;;2.37;1.70;;;11.20;99.90;;;;;;4929290;28;20672;-76
2020/12/23 08:42:56;;;;;;;3.63;1.80;;;11.30;99.90;;;;;;4929381;28;20204;-76
2020/12/23 08:45:28;;;;;;;3.15;1.73;;;11.30;99.90;;;;;;4944550;28;20542;-76
2020/12/23 08:47:55;;;;;;;4.80;2.80;;;11.20;99.90;;;;;;4941989;28;20184;-75
2020/12/23 08:50:24;;;;;;;4.43;3.40;;;11.30;99.90;;;;;;4940919;28;20481;-76
2020/12/23 08:52:51;;;;;;;4.67;4.10;;;11.40;99.90;;;;;;4949179;28;20497;-76
2020/12/23 08:55:23;;;;;;;4.40;3.40;;;11.40;99.90;;;;;;4932638;28;20479;-75
2020/12/23 08:57:50;;;;;;;3.27;2.97;;;11.40;99.90;;;;;;4939694;28;20519;-75
2020/12/23 09:00:16;;;;;;;4.60;3.50;;;11.40;99.90;;;;;;4935501;28;21086;-75
2020/12/23 09:02:44;;;;;;;3.57;3.07;;;11.30;99.90;;;;;;4930023;28;20459;-75
2020/12/23 09:05:23;;;;;;;4.00;3.60;;;11.40;99.90;;;;;;4929832;28;20870;-76
2020/12/23 09:08:02;;;;;;;3.97;3.22;;;11.40;99.90;;;;;;4930025;28;20472;-75
2020/12/23 09:10:27;;;;;;;4.17;3.23;;;11.30;99.90;;;;;;4932120;28;20285;-75
2020/12/23 09:13:13;;;;;;;6.33;3.80;;;11.40;99.90;;;;;;4938287;28;20470;-75
2020/12/23 09:15:40;;;;;;;3.90;3.23;;;11.40;99.90;;;;;;4935818;28;20261;-75
2020/12/23 09:18:13;;;;;;;5.40;3.60;;;11.40;99.90;;;;;;4955418;28;20582;-75
2020/12/23 09:20:41;;;;;;;4.23;3.20;;;11.30;99.90;;;;;;4933991;28;20473;-75
2020/12/23 09:23:08;;;;;;;5.20;3.70;;;11.40;99.90;;;;;;4940079;28;21013;-75
2020/12/23 09:25:36;;;;;;;3.33;3.03;;;11.40;99.90;;;;;;4932371;28;20209;-75
2020/12/23 09:28:10;;;;;;;5.00;3.37;;;11.40;99.90;;;;;;4925890;28;20996;-75
2020/12/23 09:30:42;;;;;;;2.77;2.53;;;11.50;99.90;;;;;;4931418;28;20560;-75
2020/12/23 09:33:19;;;;;;;4.20;3.03;;;11.60;99.90;;;;;;4946778;28;20452;-76
2020/12/23 09:35:49;;;;;;;4.67;2.83;;;11.60;99.90;;;;;;4942511;28;20508;-75
2020/12/23 09:38:24;;;;;;;2.40;1.90;;;11.70;99.90;;;;;;4941226;28;20492;-75
2020/12/23 09:40:52;;;;;;;2.30;2.10;;;11.70;99.90;;;;;;4933316;28;20891;-75
2020/12/23 09:43:20;;;;;;;4.10;2.30;;;11.70;99.90;;;;;;4934935;28;20983;-76
2020/12/23 09:45:51;;;;;;;2.42;1.95;;;11.80;99.90;;;;;;4943712;28;22577;-76
2020/12/23 09:48:18;;;;;;;9.63;1.80;;;11.80;99.90;;;;;;4942990;28;20202;-76
2020/12/23 09:50:46;;;;;;;3.33;2.07;;;11.80;99.90;;;;;;4933111;28;20519;-76
2020/12/23 09:53:12;;;;;;;3.90;1.80;;;11.80;99.90;;;;;;4929009;28;20480;-75
2020/12/23 09:55:41;;;;;;;3.10;1.40;;;11.90;99.90;;;;;;4937120;28;20491;-76
2020/12/23 09:58:07;;;;;;;6.67;1.83;;;11.90;99.90;;;;;;4932296;28;20807;-76
2020/12/23 10:01:18;;;;;;;5.30;1.60;;;11.90;99.90;;;;;;4929207;28;20448;-75
2020/12/23 10:03:43;;;;;;;2.00;1.70;;;11.90;99.90;;;;;;4928614;28;20467;-75
2020/12/23 10:06:09;;;;;;;1.33;1.00;;;11.90;99.90;;;;;;4949979;28;20460;-75
2020/12/23 10:08:35;;;;;;;3.30;1.00;;;12.00;99.90;;;;;;4934155;28;20202;-76
2020/12/23 10:11:00;;;;;;;1.40;1.00;;;11.90;99.90;;;;;;4921858;28;21505;-76
2020/12/23 10:13:26;;;;;;;1.30;1.00;;;11.90;99.90;;;;;;4925152;28;20178;-75
2020/12/23 10:15:52;;;;;;;5.10;1.20;;;11.90;99.90;;;;;;4928986;28;20230;-75
2020/12/23 10:18:17;;;;;;;1.90;1.10;;;11.90;99.90;;;;;;4932675;28;20269;-76
2020/12/23 10:20:43;;;;;;;3.13;1.03;;;11.90;99.90;;;;;;4938018;28;20606;-75
2020/12/23 10:23:08;;;;;;;1.50;1.10;;;11.90;99.90;;;;;;4941563;28;20198;-75
2020/12/23 10:25:36;;;;;;;1.37;0.80;;;11.90;99.90;;;;;;4950240;28;20201;-75
2020/12/23 10:28:02;;;;;;;1.53;0.90;;;11.90;99.90;;;;;;4942465;28;20209;-76
2020/12/23 10:30:28;;;;;;;2.33;0.77;;;11.90;99.90;;;;;;4939689;28;20515;-75
2020/12/23 10:32:53;;;;;;;6.80;1.20;;;11.90;99.90;;;;;;4935504;28;20199;-76
2020/12/23 10:35:19;;;;;;;2.40;0.77;;;11.90;99.90;;;;;;4928914;28;20208;-75
2020/12/23 10:37:45;;;;;;;1.30;0.70;;;12.00;99.90;;;;;;4933670;28;20226;-76
2020/12/23 10:40:10;;;;;;;4.90;1.20;;;11.90;99.90;;;;;;4929866;28;20193;-76
2020/12/23 10:42:36;;;;;;;1.07;0.70;;;12.00;99.90;;;;;;4921734;28;20200;-75
2020/12/23 10:45:02;;;;;;;1.90;0.87;;;12.00;99.90;;;;;;4931059;28;20186;-76
2020/12/23 10:47:28;;;;;;;1.63;0.80;;;12.00;99.90;;;;;;4926699;28;20626;-76
2020/12/23 10:49:54;;;;;;;1.50;0.60;;;12.00;99.90;;;;;;4927503;28;20226;-75
2020/12/23 10:52:20;;;;;;;1.30;0.97;;;12.00;99.90;;;;;;4926485;28;20477;-75
2020/12/23 10:54:46;;;;;;;1.70;1.20;;;12.00;99.90;;;;;;4933380;28;20189;-76
2020/12/23 10:57:13;;;;;;;1.40;0.90;;;12.10;99.90;;;;;;4938774;28;20608;-75
2020/12/23 10:59:39;;;;;;;1.50;0.90;;;12.10;99.90;;;;;;4936765;28;20650;-75
2020/12/23 11:02:05;;;;;;;2.90;1.20;;;12.00;99.90;;;;;;4938152;28;21374;-76
2020/12/23 11:04:31;;;;;;;2.50;1.07;;;12.10;99.90;;;;;;4930118;28;20456;-75
2020/12/23 11:06:57;;;;;;;1.60;1.00;;;12.10;99.90;;;;;;4930366;28;21014;-76
2020/12/23 11:09:23;;;;;;;1.90;1.10;;;12.00;99.90;;;;;;4950112;28;20187;-75
2020/12/23 11:11:53;;;;;;;1.95;1.10;;;12.10;99.90;;;;;;4926329;28;20455;-76
2020/12/23 11:14:19;;;;;;;2.10;0.97;;;12.00;99.90;;;;;;4933516;28;20272;-75
2020/12/23 11:16:51;;;;;;;1.20;0.90;;;12.10;99.90;;;;;;4926252;28;20503;-76
2020/12/23 11:19:20;;;;;;;4.40;1.30;;;12.10;99.90;;;;;;4937364;28;20453;-75
2020/12/23 11:21:46;;;;;;;2.47;1.27;;;12.10;99.90;;;;;;4944435;28;20496;-75
2020/12/23 11:24:13;;;;;;;2.40;1.20;;;12.10;99.90;;;;;;4930434;28;20484;-75
2020/12/23 11:26:39;;;;;;;3.47;1.93;;;12.10;99.90;;;;;;4928694;28;20721;-75
2020/12/23 11:29:05;;;;;;;1.63;1.00;;;12.20;99.90;;;;;;4928204;28;20934;-75
2020/12/23 11:31:31;;;;;;;1.37;0.97;;;12.10;99.90;;;;;;4928757;28;21837;-75
2020/12/23 11:33:57;;;;;;;1.67;0.93;;;12.10;99.90;;;;;;4929994;28;20445;-75
2020/12/23 11:36:23;;;;;;;1.77;1.00;;;12.10;99.90;;;;;;4936149;28;20697;-75
2020/12/23 11:38:49;;;;;;;2.13;1.17;;;12.10;99.90;;;;;;4930024;28;20202;-75
2020/12/23 11:41:14;;;;;;;1.50;1.10;;;12.00;99.90;;;;;;4928947;28;20465;-75
2020/12/23 11:43:41;;;;;;;1.43;0.83;;;12.10;99.90;;;;;;4939417;28;20280;-75
2020/12/23 11:46:07;;;;;;;1.43;0.90;;;12.10;99.90;;;;;;4940663;28;20453;-75
2020/12/23 11:48:34;;;;;;;1.13;0.77;;;12.00;99.90;;;;;;4941284;28;20470;-75
2020/12/23 11:51:00;;;;;;;2.20;1.03;;;12.00;99.90;;;;;;4951352;28;20468;-75
2020/12/23 11:53:25;;;;;;;2.47;1.13;;;12.00;99.90;;;;;;4950733;28;20481;-75
2020/12/23 11:55:51;;;;;;;1.53;0.93;;;12.00;99.90;;;;;;4940413;28;20213;-75
2020/12/23 11:58:17;;;;;;;5.00;1.00;;;11.90;99.90;;;;;;4940257;28;20573;-75
2020/12/23 12:00:43;;;;;;;1.40;1.10;;;12.00;99.90;;;;;;4942484;28;20978;-75
2020/12/23 12:03:09;;;;;;;1.57;0.83;;;12.00;99.90;;;;;;4937735;28;20457;-75
2020/12/23 12:05:35;;;;;;;1.30;0.80;;;12.00;99.90;;;;;;4940045;28;20186;-75
2020/12/23 12:08:04;;;;;;;2.80;1.27;;;12.00;99.90;;;;;;4934407;28;20316;-76
2020/12/23 12:10:30;;;;;;;2.30;1.23;;;12.00;99.90;;;;;;4927131;28;20241;-75
2020/12/23 12:12:56;;;;;;;4.03;0.90;;;12.00;99.90;;;;;;4926830;28;20899;-75
2020/12/23 12:15:22;;;;;;;1.53;1.00;;;12.00;99.90;;;;;;4936738;28;20264;-75
2020/12/23 12:17:47;;;;;;;1.30;0.90;;;12.00;99.90;;;;;;4930902;28;20496;-75
2020/12/23 12:20:13;;;;;;;2.17;1.00;;;12.00;99.90;;;;;;4937356;28;20243;-75
2020/12/23 12:22:38;;;;;;;1.27;0.80;;;11.90;99.90;;;;;;4934547;28;20324;-74
2020/12/23 12:25:04;;;;;;;2.70;1.00;;;11.90;99.90;;;;;;4936216;28;20598;-76
2020/12/23 12:27:30;;;;;;;2.63;1.03;;;11.90;99.90;;;;;;4938902;28;20201;-75
2020/12/23 12:29:55;;;;;;;1.70;1.17;;;11.90;99.90;;;;;;4932732;28;20186;-75
2020/12/23 12:32:21;;;;;;;1.43;0.90;;;11.80;99.90;;;;;;4935851;28;20253;-76
2020/12/23 12:34:47;;;;;;;1.80;0.97;;;11.80;99.90;;;;;;4925479;28;20214;-76
2020/12/23 12:37:12;;;;;;;1.70;1.17;;;11.80;99.90;;;;;;4927113;28;20228;-75
2020/12/23 12:39:38;;;;;;;1.30;1.00;;;11.80;99.90;;;;;;4932189;28;20662;-75
2020/12/23 12:42:04;;;;;;;3.77;1.30;;;11.80;99.90;;;;;;4943419;28;20194;-75